createdAt,value
2017-01-17T00:00:54.102Z,959.35
2017-01-17T00:01:54.114Z,959.34
2017-01-17T00:02:54.124Z,959.37
2017-01-17T00:03:54.184Z,959.38
2017-01-17T00:04:54.153Z,959.4
2017-01-17T00:05:54.159Z,959.38
2017-01-17T00:06:54.166Z,959.44
2017-01-17T00:07:54.176Z,959.42
2017-01-17T00:08:54.184Z,959.4
2017-01-17T00:09:54.196Z,959.45
2017-01-17T00:10:54.205Z,959.44
2017-01-17T00:11:54.216Z,959.45
2017-01-17T00:12:54.227Z,959.47
2017-01-17T00:13:54.236Z,959.45
2017-01-17T00:14:54.250Z,959.44
2017-01-17T00:15:54.257Z,959.48
2017-01-17T00:16:54.267Z,959.44
2017-01-17T00:17:54.280Z,959.43
2017-01-17T00:18:54.288Z,959.41
2017-01-17T00:19:54.298Z,959.36
2017-01-17T00:20:54.309Z,959.39
2017-01-17T00:21:54.318Z,959.39
2017-01-17T00:22:54.329Z,959.43
2017-01-17T00:23:54.389Z,959.43
2017-01-17T00:24:54.349Z,959.43
2017-01-17T00:25:54.359Z,959.44
2017-01-17T00:26:54.370Z,959.45
2017-01-17T00:27:54.380Z,959.43
2017-01-17T00:28:54.491Z,959.44
2017-01-17T00:29:54.400Z,959.42
2017-01-17T00:30:54.415Z,959.41
2017-01-17T00:31:54.422Z,959.39
2017-01-17T00:32:54.433Z,959.43
2017-01-17T00:33:54.447Z,959.44
2017-01-17T00:34:54.451Z,959.43
2017-01-17T00:35:54.462Z,959.47
2017-01-17T00:36:54.471Z,959.45
2017-01-17T00:37:54.483Z,959.45
2017-01-17T00:38:54.493Z,959.43
2017-01-17T00:39:54.504Z,959.47
2017-01-17T00:40:54.514Z,959.46
2017-01-17T00:41:54.529Z,959.41
2017-01-17T00:42:54.536Z,959.43
2017-01-17T00:43:54.545Z,959.44
2017-01-17T00:44:54.656Z,959.48
2017-01-17T00:45:54.565Z,959.49
2017-01-17T00:46:54.576Z,959.5
2017-01-17T00:47:54.586Z,959.47
2017-01-17T00:48:54.596Z,959.52
2017-01-17T00:49:54.607Z,959.51
2017-01-17T00:50:54.615Z,959.53
2017-01-17T00:51:54.626Z,959.54
2017-01-17T00:52:54.637Z,959.49
2017-01-17T00:53:54.649Z,959.51
2017-01-17T00:54:54.657Z,959.56
2017-01-17T00:55:54.667Z,959.55
2017-01-17T00:56:54.677Z,959.62
2017-01-17T00:57:54.688Z,959.59
2017-01-17T00:58:54.698Z,959.56
2017-01-17T00:59:54.707Z,959.55
2017-01-17T01:00:54.717Z,959.58
2017-01-17T01:01:54.728Z,959.6
2017-01-17T01:02:54.738Z,959.59
2017-01-17T01:03:54.749Z,959.57
2017-01-17T01:04:54.760Z,959.6
2017-01-17T01:05:54.768Z,959.57
2017-01-17T01:06:54.781Z,959.56
2017-01-17T01:07:54.789Z,959.57
2017-01-17T01:08:54.799Z,959.6
2017-01-17T01:09:54.859Z,959.57
2017-01-17T01:10:54.819Z,959.62
2017-01-17T01:11:54.830Z,959.64
2017-01-17T01:12:54.840Z,959.62
2017-01-17T01:13:54.850Z,959.63
2017-01-17T01:14:54.909Z,959.67
2017-01-17T01:15:54.871Z,959.67
2017-01-17T01:16:54.880Z,959.7
2017-01-17T01:17:54.891Z,959.75
2017-01-17T01:18:54.900Z,959.76
2017-01-17T01:19:55.965Z,959.73
2017-01-17T01:20:54.920Z,959.71
2017-01-17T01:21:54.929Z,959.78
2017-01-17T01:22:54.941Z,959.8
2017-01-17T01:23:54.951Z,959.76
2017-01-17T01:24:54.960Z,959.79
2017-01-17T01:25:54.971Z,959.82
2017-01-17T01:26:54.981Z,959.83
2017-01-17T01:27:54.991Z,959.78
2017-01-17T01:28:55.001Z,959.85
2017-01-17T01:29:55.011Z,959.86
2017-01-17T01:30:55.021Z,959.87
2017-01-17T01:31:55.031Z,959.86
2017-01-17T01:32:55.040Z,959.89
2017-01-17T01:33:55.050Z,959.9
2017-01-17T01:34:55.061Z,959.91
2017-01-17T01:35:55.071Z,959.93
2017-01-17T01:36:55.082Z,959.95
2017-01-17T01:37:55.091Z,960
2017-01-17T01:38:55.101Z,959.98
2017-01-17T01:39:55.112Z,959.95
2017-01-17T01:40:55.124Z,959.94
2017-01-17T01:41:55.132Z,960
2017-01-17T01:42:55.142Z,959.98
2017-01-17T01:43:55.151Z,960.02
2017-01-17T01:44:55.163Z,960.05
2017-01-17T01:45:55.222Z,960.01
2017-01-17T01:46:55.182Z,960.08
2017-01-17T01:47:55.192Z,960.05
2017-01-17T01:48:55.202Z,960.06
2017-01-17T01:49:55.213Z,960.09
2017-01-17T01:50:55.223Z,960.05
2017-01-17T01:51:55.233Z,960.1
2017-01-17T01:52:55.243Z,960
2017-01-17T01:53:55.253Z,960.07
2017-01-17T01:54:55.264Z,960.06
2017-01-17T01:55:55.273Z,960.07
2017-01-17T01:56:55.284Z,960.02
2017-01-17T01:57:55.314Z,960.05
2017-01-17T01:58:55.304Z,960.08
2017-01-17T01:59:55.314Z,960.05
2017-01-17T02:00:55.323Z,960.05
2017-01-17T02:01:55.335Z,960.08
2017-01-17T02:02:55.344Z,960.07
2017-01-17T02:03:55.355Z,960.06
2017-01-17T02:04:55.415Z,960.06
2017-01-17T02:05:55.375Z,960.04
2017-01-17T02:06:55.384Z,960.01
2017-01-17T02:07:55.396Z,960.04
2017-01-17T02:08:55.405Z,960.04
2017-01-17T02:09:55.519Z,960.05
2017-01-17T02:10:55.426Z,960.08
2017-01-17T02:11:55.446Z,960.1
2017-01-17T02:12:55.446Z,960.09
2017-01-17T02:13:55.456Z,960.07
2017-01-17T02:14:55.516Z,960.12
2017-01-17T02:15:55.476Z,960.13
2017-01-17T02:16:55.488Z,960.14
2017-01-17T02:17:55.497Z,960.15
2017-01-17T02:18:55.510Z,960.15
2017-01-17T02:19:55.516Z,960.1
2017-01-17T02:20:55.527Z,960.09
2017-01-17T02:21:55.537Z,960.09
2017-01-17T02:22:55.545Z,960.14
2017-01-17T02:23:55.557Z,960.16
2017-01-17T02:24:55.566Z,960.14
2017-01-17T02:25:55.579Z,960.2
2017-01-17T02:26:55.587Z,960.2
2017-01-17T02:27:55.602Z,960.16
2017-01-17T02:28:55.608Z,960.19
2017-01-17T02:29:55.617Z,960.2
2017-01-17T02:30:55.627Z,960.19
2017-01-17T02:31:55.637Z,960.24
2017-01-17T02:32:55.647Z,960.21
2017-01-17T02:33:55.656Z,960.26
2017-01-17T02:34:55.666Z,960.24
2017-01-17T02:35:55.678Z,960.25
2017-01-17T02:36:55.686Z,960.24
2017-01-17T02:37:55.696Z,960.2
2017-01-17T02:38:55.706Z,960.22
2017-01-17T02:39:55.722Z,960.28
2017-01-17T02:40:55.826Z,960.24
2017-01-17T02:41:55.735Z,960.26
2017-01-17T02:42:55.948Z,960.32
2017-01-17T02:43:55.756Z,960.3
2017-01-17T02:44:55.766Z,960.31
2017-01-17T02:45:55.775Z,960.36
2017-01-17T02:46:55.784Z,960.36
2017-01-17T02:47:55.795Z,960.4
2017-01-17T02:48:55.804Z,960.38
2017-01-17T02:49:55.814Z,960.37
2017-01-17T02:50:55.825Z,960.4
2017-01-17T02:51:55.836Z,960.38
2017-01-17T02:52:55.928Z,960.42
2017-01-17T02:53:55.863Z,960.42
2017-01-17T02:54:55.864Z,960.38
2017-01-17T02:55:55.973Z,960.44
2017-01-17T02:56:55.883Z,960.43
2017-01-17T02:57:55.894Z,960.4
2017-01-17T02:58:55.902Z,960.39
2017-01-17T02:59:55.912Z,960.44
2017-01-17T03:00:55.924Z,960.42
2017-01-17T03:01:55.934Z,960.42
2017-01-17T03:02:55.942Z,960.42
2017-01-17T03:03:55.951Z,960.43
2017-01-17T03:04:56.011Z,960.47
2017-01-17T03:05:55.973Z,960.4
2017-01-17T03:06:55.982Z,960.44
2017-01-17T03:07:55.992Z,960.44
2017-01-17T03:08:56.000Z,960.44
2017-01-17T03:09:56.060Z,960.45
2017-01-17T03:10:56.021Z,960.43
2017-01-17T03:11:56.033Z,960.48
2017-01-17T03:12:56.040Z,960.47
2017-01-17T03:13:56.050Z,960.48
2017-01-17T03:14:56.211Z,960.48
2017-01-17T03:15:56.069Z,960.47
2017-01-17T03:16:56.081Z,960.51
2017-01-17T03:17:56.088Z,960.47
2017-01-17T03:18:56.098Z,960.51
2017-01-17T03:19:56.158Z,960.52
2017-01-17T03:20:56.118Z,960.5
2017-01-17T03:21:56.128Z,960.57
2017-01-17T03:22:56.137Z,960.53
2017-01-17T03:23:56.148Z,960.52
2017-01-17T03:24:56.157Z,960.54
2017-01-17T03:25:56.166Z,960.53
2017-01-17T03:26:56.177Z,960.56
2017-01-17T03:27:56.186Z,960.54
2017-01-17T03:28:56.195Z,960.58
2017-01-17T03:29:56.205Z,960.53
2017-01-17T03:30:56.215Z,960.54
2017-01-17T03:31:56.224Z,960.54
2017-01-17T03:32:56.234Z,960.57
2017-01-17T03:33:56.244Z,960.56
2017-01-17T03:34:56.255Z,960.56
2017-01-17T03:35:56.263Z,960.52
2017-01-17T03:36:56.273Z,960.58
2017-01-17T03:37:56.283Z,960.57
2017-01-17T03:38:56.293Z,960.6
2017-01-17T03:39:56.301Z,960.61
2017-01-17T03:40:56.312Z,960.61
2017-01-17T03:41:56.322Z,960.62
2017-01-17T03:42:56.331Z,960.63
2017-01-17T03:43:56.341Z,960.65
2017-01-17T03:44:56.350Z,960.64
2017-01-17T03:45:56.359Z,960.64
2017-01-17T03:46:56.367Z,960.68
2017-01-17T03:47:56.379Z,960.66
2017-01-17T03:48:56.388Z,960.69
2017-01-17T03:49:56.400Z,960.7
2017-01-17T03:50:56.407Z,960.73
2017-01-17T03:51:56.418Z,960.76
2017-01-17T03:52:56.428Z,960.79
2017-01-17T03:53:56.436Z,960.73
2017-01-17T03:54:56.447Z,960.77
2017-01-17T03:55:56.506Z,960.75
2017-01-17T03:56:56.469Z,960.75
2017-01-17T03:57:56.474Z,960.74
2017-01-17T03:58:56.484Z,960.79
2017-01-17T03:59:56.494Z,960.75
2017-01-17T04:00:56.553Z,960.76
2017-01-17T04:01:56.512Z,960.8
2017-01-17T04:02:56.522Z,960.75
2017-01-17T04:03:56.531Z,960.77
2017-01-17T04:04:56.540Z,960.75
2017-01-17T04:05:56.550Z,960.74
2017-01-17T04:06:56.560Z,960.79
2017-01-17T04:07:56.570Z,960.76
2017-01-17T04:08:56.579Z,960.8
2017-01-17T04:09:56.588Z,960.76
2017-01-17T04:10:56.598Z,960.78
2017-01-17T04:11:56.607Z,960.81
2017-01-17T04:12:56.616Z,960.81
2017-01-17T04:13:56.626Z,960.81
2017-01-17T04:14:56.685Z,960.82
2017-01-17T04:15:56.644Z,960.82
2017-01-17T04:16:56.653Z,960.78
2017-01-17T04:17:56.663Z,960.79
2017-01-17T04:18:56.676Z,960.82
2017-01-17T04:19:57.032Z,960.81
2017-01-17T04:20:56.691Z,960.85
2017-01-17T04:21:56.702Z,960.87
2017-01-17T04:22:56.708Z,960.86
2017-01-17T04:23:56.720Z,960.87
2017-01-17T04:24:56.729Z,960.88
2017-01-17T04:25:56.738Z,960.92
2017-01-17T04:26:56.747Z,960.91
2017-01-17T04:27:56.756Z,960.93
2017-01-17T04:28:56.764Z,960.87
2017-01-17T04:29:56.776Z,960.94
2017-01-17T04:30:56.784Z,960.96
2017-01-17T04:31:56.793Z,960.91
2017-01-17T04:32:56.803Z,960.93
2017-01-17T04:33:56.811Z,960.94
2017-01-17T04:34:56.821Z,960.95
2017-01-17T04:35:56.831Z,960.94
2017-01-17T04:36:56.840Z,960.96
2017-01-17T04:37:56.849Z,960.96
2017-01-17T04:38:56.858Z,960.98
2017-01-17T04:39:56.867Z,960.96
2017-01-17T04:40:56.877Z,960.92
2017-01-17T04:41:56.886Z,960.89
2017-01-17T04:42:56.895Z,960.91
2017-01-17T04:43:56.905Z,960.85
2017-01-17T04:44:56.913Z,960.9
2017-01-17T04:45:56.923Z,960.92
2017-01-17T04:46:56.932Z,960.97
2017-01-17T04:47:56.942Z,961.01
2017-01-17T04:48:56.950Z,961.06
2017-01-17T04:49:56.959Z,961.03
2017-01-17T04:50:56.969Z,961.06
2017-01-17T04:51:56.979Z,961.1
2017-01-17T04:52:56.987Z,961.09
2017-01-17T04:53:56.997Z,961.1
2017-01-17T04:54:57.006Z,961.1
2017-01-17T04:55:57.065Z,961.1
2017-01-17T04:56:57.024Z,961.11
2017-01-17T04:57:57.033Z,961.13
2017-01-17T04:58:57.042Z,961.1
2017-01-17T04:59:57.050Z,961.11
2017-01-17T05:00:57.060Z,961.11
2017-01-17T05:01:57.071Z,961.14
2017-01-17T05:02:57.080Z,961.17
2017-01-17T05:03:57.088Z,961.17
2017-01-17T05:04:57.097Z,961.17
2017-01-17T05:05:57.107Z,961.19
2017-01-17T05:06:57.115Z,961.19
2017-01-17T05:07:57.125Z,961.19
2017-01-17T05:08:57.134Z,961.24
2017-01-17T05:09:57.141Z,961.2
2017-01-17T05:10:57.151Z,961.24
2017-01-17T05:11:57.161Z,961.24
2017-01-17T05:12:57.174Z,961.28
2017-01-17T05:13:57.180Z,961.35
2017-01-17T05:14:57.188Z,961.34
2017-01-17T05:15:57.197Z,961.37
2017-01-17T05:16:57.208Z,961.37
2017-01-17T05:17:57.215Z,961.4
2017-01-17T05:18:57.223Z,961.39
2017-01-17T05:19:57.233Z,961.39
2017-01-17T05:20:57.243Z,961.38
2017-01-17T05:21:57.253Z,961.42
2017-01-17T05:22:57.261Z,961.41
2017-01-17T05:23:57.270Z,961.45
2017-01-17T05:24:57.278Z,961.47
2017-01-17T05:25:57.288Z,961.49
2017-01-17T05:26:57.347Z,961.47
2017-01-17T05:27:57.306Z,961.5
2017-01-17T05:28:57.315Z,961.5
2017-01-17T05:29:57.324Z,961.54
2017-01-17T05:30:57.333Z,961.55
2017-01-17T05:31:57.342Z,961.58
2017-01-17T05:32:57.349Z,961.58
2017-01-17T05:33:57.359Z,961.56
2017-01-17T05:34:57.368Z,961.6
2017-01-17T05:35:57.377Z,961.59
2017-01-17T05:36:57.386Z,961.55
2017-01-17T05:37:57.394Z,961.59
2017-01-17T05:38:57.404Z,961.54
2017-01-17T05:39:57.413Z,961.56
2017-01-17T05:40:57.421Z,961.62
2017-01-17T05:41:57.431Z,961.59
2017-01-17T05:42:57.439Z,961.64
2017-01-17T05:43:57.448Z,961.65
2017-01-17T05:44:57.756Z,961.65
2017-01-17T05:45:57.466Z,961.65
2017-01-17T05:46:57.473Z,961.67
2017-01-17T05:47:57.482Z,961.64
2017-01-17T05:48:57.490Z,961.65
2017-01-17T05:49:57.501Z,961.69
2017-01-17T05:50:57.508Z,961.71
2017-01-17T05:51:57.518Z,961.74
2017-01-17T05:52:57.527Z,961.78
2017-01-17T05:53:57.535Z,961.73
2017-01-17T05:54:57.547Z,961.7
2017-01-17T05:55:57.557Z,961.76
2017-01-17T05:56:57.563Z,961.71
2017-01-17T05:57:57.575Z,961.78
2017-01-17T05:58:57.579Z,961.76
2017-01-17T05:59:57.589Z,961.74
2017-01-17T06:00:57.598Z,961.69
2017-01-17T06:01:57.607Z,961.73
2017-01-17T06:02:57.616Z,961.74
2017-01-17T06:03:57.628Z,961.75
2017-01-17T06:04:57.636Z,961.74
2017-01-17T06:05:57.645Z,961.76
2017-01-17T06:06:57.654Z,961.75
2017-01-17T06:07:57.663Z,961.79
2017-01-17T06:08:57.670Z,961.75
2017-01-17T06:09:57.682Z,961.86
2017-01-17T06:10:57.689Z,961.8
2017-01-17T06:11:57.698Z,961.83
2017-01-17T06:12:57.707Z,961.88
2017-01-17T06:13:57.716Z,961.84
2017-01-17T06:14:57.724Z,961.88
2017-01-17T06:15:57.734Z,961.88
2017-01-17T06:16:57.744Z,961.9
2017-01-17T06:17:57.752Z,961.89
2017-01-17T06:18:57.763Z,961.94
2017-01-17T06:19:57.775Z,961.92
2017-01-17T06:20:57.777Z,961.95
2017-01-17T06:21:57.788Z,961.94
2017-01-17T06:22:57.797Z,962
2017-01-17T06:23:57.813Z,962.02
2017-01-17T06:24:57.814Z,962.06
2017-01-17T06:25:57.824Z,962.07
2017-01-17T06:26:57.834Z,962.1
2017-01-17T06:27:57.841Z,962.08
2017-01-17T06:28:57.850Z,962.11
2017-01-17T06:29:57.861Z,962.07
2017-01-17T06:30:57.869Z,962.12
2017-01-17T06:31:57.876Z,962.1
2017-01-17T06:32:57.886Z,962.15
2017-01-17T06:33:57.895Z,962.15
2017-01-17T06:34:57.906Z,962.18
2017-01-17T06:35:57.914Z,962.18
2017-01-17T06:36:57.923Z,962.18
2017-01-17T06:37:57.933Z,962.19
2017-01-17T06:38:57.940Z,962.2
2017-01-17T06:39:57.949Z,962.21
2017-01-17T06:40:57.957Z,962.22
2017-01-17T06:41:57.966Z,962.18
2017-01-17T06:42:57.975Z,962.22
2017-01-17T06:43:57.985Z,962.25
2017-01-17T06:44:57.996Z,962.25
2017-01-17T06:45:58.002Z,962.26
2017-01-17T06:46:58.011Z,962.28
2017-01-17T06:47:58.019Z,962.31
2017-01-17T06:48:58.029Z,962.32
2017-01-17T06:49:58.038Z,962.35
2017-01-17T06:50:58.097Z,962.37
2017-01-17T06:51:58.059Z,962.36
2017-01-17T06:52:58.065Z,962.39
2017-01-17T06:53:58.074Z,962.41
2017-01-17T06:54:58.083Z,962.41
2017-01-17T06:55:58.093Z,962.38
2017-01-17T06:56:58.101Z,962.43
2017-01-17T06:57:58.110Z,962.43
2017-01-17T06:58:58.126Z,962.44
2017-01-17T06:59:58.129Z,962.43
2017-01-17T07:00:58.138Z,962.45
2017-01-17T07:01:58.146Z,962.44
2017-01-17T07:02:58.155Z,962.42
2017-01-17T07:03:58.165Z,962.42
2017-01-17T07:04:58.282Z,962.4
2017-01-17T07:05:58.192Z,962.43
2017-01-17T07:06:58.191Z,962.37
2017-01-17T07:07:58.199Z,962.43
2017-01-17T07:08:58.257Z,962.41
2017-01-17T07:09:58.217Z,962.43
2017-01-17T07:10:58.225Z,962.43
2017-01-17T07:11:58.236Z,962.4
2017-01-17T07:12:58.255Z,962.41
2017-01-17T07:13:58.251Z,962.43
2017-01-17T07:14:58.261Z,962.43
2017-01-17T07:15:58.269Z,962.45
2017-01-17T07:16:58.279Z,962.49
2017-01-17T07:17:58.287Z,962.45
2017-01-17T07:18:58.296Z,962.44
2017-01-17T07:19:58.321Z,962.45
2017-01-17T07:20:58.314Z,962.48
2017-01-17T07:21:58.321Z,962.47
2017-01-17T07:22:58.333Z,962.47
2017-01-17T07:23:58.344Z,962.53
2017-01-17T07:24:58.347Z,962.45
2017-01-17T07:25:58.356Z,962.49
2017-01-17T07:26:58.386Z,962.52
2017-01-17T07:27:58.373Z,962.5
2017-01-17T07:28:58.387Z,962.5
2017-01-17T07:29:58.391Z,962.52
2017-01-17T07:30:58.401Z,962.58
2017-01-17T07:31:58.410Z,962.57
2017-01-17T07:32:58.418Z,962.6
2017-01-17T07:33:58.427Z,962.58
2017-01-17T07:34:58.486Z,962.61
2017-01-17T07:35:58.445Z,962.56
2017-01-17T07:36:58.453Z,962.64
2017-01-17T07:37:58.461Z,962.65
2017-01-17T07:38:58.470Z,962.67
2017-01-17T07:39:58.529Z,962.67
2017-01-17T07:40:58.489Z,962.65
2017-01-17T07:41:58.497Z,962.72
2017-01-17T07:42:58.506Z,962.71
2017-01-17T07:43:58.514Z,962.73
2017-01-17T07:44:58.573Z,962.73
2017-01-17T07:45:58.530Z,962.71
2017-01-17T07:46:58.541Z,962.75
2017-01-17T07:47:58.549Z,962.68
2017-01-17T07:48:58.557Z,962.75
2017-01-17T07:49:58.566Z,962.79
2017-01-17T07:50:58.574Z,962.7
2017-01-17T07:51:58.584Z,962.7
2017-01-17T07:52:58.592Z,962.74
2017-01-17T07:53:58.602Z,962.74
2017-01-17T07:54:58.609Z,962.72
2017-01-17T07:55:58.618Z,962.7
2017-01-17T07:56:58.628Z,962.74
2017-01-17T07:57:58.636Z,962.75
2017-01-17T07:58:58.644Z,962.74
2017-01-17T07:59:58.652Z,962.75
2017-01-17T08:00:58.712Z,962.77
2017-01-17T08:01:58.671Z,962.81
2017-01-17T08:02:58.681Z,962.81
2017-01-17T08:03:58.690Z,962.8
2017-01-17T08:04:58.698Z,962.82
2017-01-17T08:05:58.755Z,962.86
2017-01-17T08:06:58.715Z,962.86
2017-01-17T08:07:58.724Z,962.84
2017-01-17T08:08:58.733Z,962.89
2017-01-17T08:09:58.741Z,962.88
2017-01-17T08:10:58.751Z,962.83
2017-01-17T08:11:58.829Z,962.83
2017-01-17T08:12:58.768Z,962.87
2017-01-17T08:13:58.777Z,962.87
2017-01-17T08:14:58.886Z,962.87
2017-01-17T08:15:58.886Z,962.89
2017-01-17T08:16:58.887Z,962.91
2017-01-17T08:17:58.813Z,962.89
2017-01-17T08:18:58.906Z,962.92
2017-01-17T08:19:58.832Z,962.95
2017-01-17T08:20:58.840Z,962.91
2017-01-17T08:21:58.850Z,962.94
2017-01-17T08:22:58.859Z,962.94
2017-01-17T08:23:58.870Z,962.97
2017-01-17T08:24:58.875Z,962.98
2017-01-17T08:25:58.886Z,962.91
2017-01-17T08:26:58.896Z,963
2017-01-17T08:27:58.904Z,963.04
2017-01-17T08:28:58.913Z,963.05
2017-01-17T08:29:58.925Z,963.05
2017-01-17T08:30:58.934Z,963.06
2017-01-17T08:31:58.941Z,963.08
2017-01-17T08:32:58.950Z,963.08
2017-01-17T08:33:58.961Z,963.09
2017-01-17T08:34:58.968Z,963.12
2017-01-17T08:35:58.978Z,963.11
2017-01-17T08:36:58.989Z,963.11
2017-01-17T08:37:58.997Z,963.14
2017-01-17T08:38:59.006Z,963.1
2017-01-17T08:39:59.016Z,963.13
2017-01-17T08:40:59.025Z,963.14
2017-01-17T08:41:59.035Z,963.11
2017-01-17T08:42:59.059Z,963.15
2017-01-17T08:43:59.053Z,963.19
2017-01-17T08:44:59.062Z,963.19
2017-01-17T08:45:59.072Z,963.21
2017-01-17T08:46:59.081Z,963.2
2017-01-17T08:47:59.091Z,963.18
2017-01-17T08:48:59.103Z,963.25
2017-01-17T08:49:59.109Z,963.24
2017-01-17T08:50:59.118Z,963.21
2017-01-17T08:51:59.127Z,963.33
2017-01-17T08:52:59.136Z,963.29
2017-01-17T08:53:59.146Z,963.27
2017-01-17T08:54:59.155Z,963.31
2017-01-17T08:55:59.165Z,963.35
2017-01-17T08:56:59.173Z,963.34
2017-01-17T08:57:59.183Z,963.35
2017-01-17T08:58:59.192Z,963.35
2017-01-17T08:59:59.202Z,963.39
2017-01-17T09:00:59.211Z,963.39
2017-01-17T09:01:59.220Z,963.38
2017-01-17T09:02:59.230Z,963.4
2017-01-17T09:03:59.240Z,963.39
2017-01-17T09:04:59.247Z,963.41
2017-01-17T09:05:59.257Z,963.45
2017-01-17T09:06:59.265Z,963.4
2017-01-17T09:07:59.275Z,963.4
2017-01-17T09:08:59.285Z,963.41
2017-01-17T09:09:59.295Z,963.42
2017-01-17T09:10:59.304Z,963.42
2017-01-17T09:11:59.312Z,963.42
2017-01-17T09:12:59.321Z,963.45
2017-01-17T09:13:59.331Z,963.44
2017-01-17T09:14:59.360Z,963.42
2017-01-17T09:15:59.349Z,963.45
2017-01-17T09:16:59.358Z,963.44
2017-01-17T09:17:59.368Z,963.48
2017-01-17T09:18:59.429Z,963.48
2017-01-17T09:19:59.386Z,963.47
2017-01-17T09:20:59.395Z,963.54
2017-01-17T09:21:59.405Z,963.55
2017-01-17T09:22:59.415Z,963.54
2017-01-17T09:23:59.473Z,963.54
2017-01-17T09:24:59.433Z,963.56
2017-01-17T09:25:59.443Z,963.57
2017-01-17T09:26:59.451Z,963.63
2017-01-17T09:27:59.462Z,963.61
2017-01-17T09:28:59.520Z,963.62
2017-01-17T09:29:59.478Z,963.64
2017-01-17T09:30:59.487Z,963.66
2017-01-17T09:31:59.498Z,963.68
2017-01-17T09:32:59.524Z,963.7
2017-01-17T09:33:59.516Z,963.7
2017-01-17T09:34:59.525Z,963.72
2017-01-17T09:35:59.535Z,963.7
2017-01-17T09:36:59.546Z,963.73
2017-01-17T09:37:59.552Z,963.74
2017-01-17T09:38:59.562Z,963.76
2017-01-17T09:39:59.572Z,963.82
2017-01-17T09:40:59.579Z,963.75
2017-01-17T09:41:59.590Z,963.79
2017-01-17T09:42:59.599Z,963.76
2017-01-17T09:43:59.610Z,963.82
2017-01-17T09:44:59.618Z,963.78
2017-01-17T09:45:59.628Z,963.83
2017-01-17T09:46:59.637Z,963.78
2017-01-17T09:47:59.646Z,963.82
2017-01-17T09:48:59.705Z,963.82
2017-01-17T09:49:59.664Z,963.82
2017-01-17T09:50:59.674Z,963.81
2017-01-17T09:51:59.682Z,963.79
2017-01-17T09:52:59.691Z,963.8
2017-01-17T09:53:59.753Z,963.82
2017-01-17T09:54:59.711Z,963.86
2017-01-17T09:55:59.720Z,963.8
2017-01-17T09:56:59.727Z,963.78
2017-01-17T09:57:59.738Z,963.82
2017-01-17T09:58:59.748Z,963.84
2017-01-17T09:59:59.756Z,963.79
2017-01-17T10:00:59.766Z,963.79
2017-01-17T10:01:59.775Z,963.8
2017-01-17T10:02:59.790Z,963.87
2017-01-17T10:03:59.797Z,963.77
2017-01-17T10:04:59.805Z,963.77
2017-01-17T10:05:59.814Z,963.84
2017-01-17T10:06:59.822Z,963.84
2017-01-17T10:07:59.832Z,963.75
2017-01-17T10:08:59.843Z,963.83
2017-01-17T10:09:59.851Z,963.82
2017-01-17T10:10:59.860Z,963.81
2017-01-17T10:11:59.870Z,963.81
2017-01-17T10:12:59.878Z,963.82
2017-01-17T10:13:59.888Z,963.83
2017-01-17T10:14:59.900Z,963.78
2017-01-17T10:15:59.907Z,963.82
2017-01-17T10:16:59.917Z,963.82
2017-01-17T10:17:59.925Z,963.8
2017-01-17T10:18:59.934Z,963.84
2017-01-17T10:19:59.943Z,963.85
2017-01-17T10:20:59.951Z,963.87
2017-01-17T10:21:59.962Z,963.85
2017-01-17T10:22:59.973Z,963.86
2017-01-17T10:23:59.980Z,963.83
2017-01-17T10:24:59.988Z,963.83
2017-01-17T10:25:59.999Z,963.81
2017-01-17T10:27:00.007Z,963.84
2017-01-17T10:28:00.018Z,963.83
2017-01-17T10:29:00.026Z,963.77
2017-01-17T10:30:00.036Z,963.79
2017-01-17T10:31:00.045Z,963.81
2017-01-17T10:32:00.053Z,963.86
2017-01-17T10:33:00.062Z,963.8
2017-01-17T10:34:00.072Z,963.8
2017-01-17T10:35:00.082Z,963.83
2017-01-17T10:36:00.090Z,963.86
2017-01-17T10:37:00.100Z,963.79
2017-01-17T10:38:00.109Z,963.8
2017-01-17T10:39:00.119Z,963.84
2017-01-17T10:40:00.177Z,963.8
2017-01-17T10:41:00.136Z,963.78
2017-01-17T10:42:00.150Z,963.79
2017-01-17T10:43:00.155Z,963.79
2017-01-17T10:44:00.164Z,963.8
2017-01-17T10:45:00.224Z,963.79
2017-01-17T10:46:00.183Z,963.81
2017-01-17T10:47:00.192Z,963.73
2017-01-17T10:48:00.225Z,963.78
2017-01-17T10:49:00.210Z,963.75
2017-01-17T10:50:00.276Z,963.78
2017-01-17T10:51:00.228Z,963.74
2017-01-17T10:52:00.238Z,963.73
2017-01-17T10:53:00.247Z,963.72
2017-01-17T10:54:00.256Z,963.74
2017-01-17T10:55:00.316Z,963.69
2017-01-17T10:56:00.275Z,963.71
2017-01-17T10:57:00.285Z,963.67
2017-01-17T10:58:00.293Z,963.72
2017-01-17T10:59:00.303Z,963.73
2017-01-17T11:00:00.362Z,963.74
2017-01-17T11:01:00.321Z,963.71
2017-01-17T11:02:00.332Z,963.71
2017-01-17T11:03:00.379Z,963.65
2017-01-17T11:04:00.353Z,963.74
2017-01-17T11:05:00.359Z,963.76
2017-01-17T11:06:00.368Z,963.71
2017-01-17T11:07:00.384Z,963.78
2017-01-17T11:08:00.387Z,963.77
2017-01-17T11:09:00.445Z,963.79
2017-01-17T11:10:00.405Z,963.76
2017-01-17T11:11:00.414Z,963.77
2017-01-17T11:12:00.425Z,963.75
2017-01-17T11:13:00.434Z,963.68
2017-01-17T11:14:00.443Z,963.76
2017-01-17T11:15:00.453Z,963.72
2017-01-17T11:16:00.512Z,963.75
2017-01-17T11:17:00.471Z,963.76
2017-01-17T11:18:00.481Z,963.71
2017-01-17T11:19:00.490Z,963.72
2017-01-17T11:20:00.499Z,963.7
2017-01-17T11:21:00.559Z,963.67
2017-01-17T11:22:00.519Z,963.69
2017-01-17T11:23:00.529Z,963.71
2017-01-17T11:24:00.537Z,963.68
2017-01-17T11:25:00.547Z,963.69
2017-01-17T11:26:00.606Z,963.61
2017-01-17T11:27:00.565Z,963.65
2017-01-17T11:28:00.575Z,963.6
2017-01-17T11:29:00.585Z,963.65
2017-01-17T11:30:00.594Z,963.62
2017-01-17T11:31:00.602Z,963.63
2017-01-17T11:32:00.616Z,963.63
2017-01-17T11:33:00.623Z,963.56
2017-01-17T11:34:00.631Z,963.52
2017-01-17T11:35:00.641Z,963.56
2017-01-17T11:36:00.652Z,963.56
2017-01-17T11:37:00.662Z,963.55
2017-01-17T11:38:00.670Z,963.57
2017-01-17T11:39:00.681Z,963.56
2017-01-17T11:40:00.691Z,963.58
2017-01-17T11:41:00.701Z,963.58
2017-01-17T11:42:00.709Z,963.63
2017-01-17T11:43:00.720Z,963.6
2017-01-17T11:44:00.729Z,963.6
2017-01-17T11:45:00.840Z,963.58
2017-01-17T11:46:00.749Z,963.6
2017-01-17T11:47:00.761Z,963.6
2017-01-17T11:48:00.770Z,963.62
2017-01-17T11:49:00.777Z,963.61
2017-01-17T11:50:00.788Z,963.6
2017-01-17T11:51:00.800Z,963.57
2017-01-17T11:52:00.809Z,963.59
2017-01-17T11:53:00.818Z,963.57
2017-01-17T11:54:00.827Z,963.58
2017-01-17T11:55:00.838Z,963.56
2017-01-17T11:56:00.897Z,963.61
2017-01-17T11:57:00.857Z,963.61
2017-01-17T11:58:00.868Z,963.64
2017-01-17T11:59:00.878Z,963.59
2017-01-17T12:00:00.887Z,963.64
2017-01-17T12:01:00.906Z,963.6
2017-01-17T12:02:00.907Z,963.63
2017-01-17T12:03:00.917Z,963.59
2017-01-17T12:04:00.928Z,963.6
2017-01-17T12:05:00.937Z,963.57
2017-01-17T12:06:00.962Z,963.65
2017-01-17T12:07:00.958Z,963.6
2017-01-17T12:08:00.968Z,963.63
2017-01-17T12:09:00.977Z,963.66
2017-01-17T12:10:00.988Z,963.66
2017-01-17T12:11:00.998Z,963.63
2017-01-17T12:12:01.007Z,963.6
2017-01-17T12:13:01.018Z,963.61
2017-01-17T12:14:01.028Z,963.63
2017-01-17T12:15:01.037Z,963.61
2017-01-17T12:16:01.049Z,963.62
2017-01-17T12:17:01.058Z,963.6
2017-01-17T12:18:01.067Z,963.63
2017-01-17T12:19:01.078Z,963.58
2017-01-17T12:20:01.088Z,963.58
2017-01-17T12:21:01.099Z,963.55
2017-01-17T12:22:01.108Z,963.61
2017-01-17T12:23:01.168Z,963.59
2017-01-17T12:24:01.129Z,963.6
2017-01-17T12:25:01.140Z,963.62
2017-01-17T12:26:01.149Z,963.62
2017-01-17T12:27:01.161Z,963.57
2017-01-17T12:28:01.188Z,963.55
2017-01-17T12:29:01.183Z,963.57
2017-01-17T12:30:01.192Z,963.58
2017-01-17T12:31:01.204Z,963.56
2017-01-17T12:32:01.215Z,963.53